createdAt,value
2022-08-24T17:48:26.859Z,99.90
2022-08-24T17:50:54.913Z,99.90
2022-08-24T17:53:28.855Z,99.90
2022-08-24T17:55:56.037Z,99.90
2022-08-24T17:58:23.784Z,99.90
2022-08-24T18:00:57.925Z,99.90
2022-08-24T18:03:25.906Z,99.90
2022-08-24T18:05:53.749Z,99.90
2022-08-24T18:08:26.869Z,99.90
2022-08-24T18:10:54.118Z,99.90
2022-08-24T18:13:21.491Z,99.90
2022-08-24T18:15:58.997Z,99.90
2022-08-24T18:18:26.816Z,99.90
2022-08-24T18:20:54.579Z,99.90
2022-08-24T18:23:27.934Z,99.90
2022-08-24T18:25:55.988Z,99.90
2022-08-24T18:28:24.050Z,99.90
2022-08-24T18:30:57.920Z,99.90
2022-08-24T18:33:25.421Z,99.90
2022-08-24T18:35:53.016Z,99.90
2022-08-24T18:38:26.920Z,99.90
2022-08-24T18:40:54.660Z,99.90
2022-08-24T18:43:24.623Z,99.90
2022-08-24T18:46:01.090Z,99.90
2022-08-24T18:48:28.442Z,99.90
2022-08-24T18:50:57.610Z,99.90
2022-08-24T18:53:34.222Z,99.90
2022-08-24T18:56:10.438Z,99.90
2022-08-24T18:58:47.403Z,99.90
2022-08-24T19:01:15.147Z,99.90
2022-08-24T19:03:43.031Z,99.90
2022-08-24T19:06:17.351Z,99.90
2022-08-24T19:08:44.742Z,1.00
2022-08-24T19:11:13.259Z,1.00
2022-08-24T19:13:47.061Z,1.00
2022-08-24T19:16:14.657Z,1.00
2022-08-24T19:18:42.054Z,1.00
2022-08-24T19:21:15.953Z,1.00
2022-08-24T19:23:45.479Z,1.00
2022-08-24T19:26:13.527Z,1.00
2022-08-24T19:28:48.036Z,1.00
2022-08-24T19:31:18.238Z,1.00
2022-08-24T19:33:49.873Z,1.00
2022-08-24T19:36:25.782Z,1.00
2022-08-24T19:38:53.213Z,1.00
2022-08-24T19:41:23.924Z,1.00
2022-08-24T19:44:32.193Z,1.00
2022-08-24T19:46:59.991Z,1.00
2022-08-24T19:49:27.469Z,1.00
2022-08-24T19:52:01.950Z,1.00
2022-08-24T19:54:46.094Z,1.00
2022-08-24T19:57:41.190Z,1.00
2022-08-24T20:00:17.535Z,1.00
2022-08-24T20:02:57.963Z,1.00
2022-08-24T20:05:28.989Z,1.00
2022-08-24T20:08:04.920Z,1.00
2022-08-24T20:10:34.346Z,1.00
2022-08-24T20:13:02.013Z,1.00
2022-08-24T20:15:35.990Z,1.00
2022-08-24T20:18:06.535Z,1.00
2022-08-24T20:20:33.872Z,1.00
2022-08-24T20:23:11.970Z,1.00
2022-08-24T20:25:40.956Z,1.00
2022-08-24T20:31:03.098Z,1.00
2022-08-24T20:33:30.539Z,1.00
2022-08-24T20:35:58.206Z,1.00
2022-08-24T20:38:35.075Z,1.00
2022-08-24T20:41:03.345Z,1.00
2022-08-24T20:43:30.484Z,1.00
2022-08-24T20:46:04.912Z,1.00
2022-08-24T20:48:34.099Z,1.00
2022-08-24T20:51:01.329Z,1.00
2022-08-24T20:53:35.916Z,1.00
2022-08-24T20:56:19.179Z,1.00
2022-08-24T20:58:53.016Z,2.90
2022-08-24T21:01:20.156Z,10.90
2022-08-24T21:03:47.450Z,36.20
2022-08-24T21:06:25.961Z,49.80
2022-08-24T21:08:54.024Z,71.30
2022-08-24T21:11:21.681Z,64.30
2022-08-24T21:13:56.011Z,49.40
2022-08-24T21:16:23.156Z,66.10
2022-08-24T21:18:50.539Z,95.90
2022-08-24T21:21:23.918Z,99.90
2022-08-24T21:23:51.101Z,99.90
2022-08-24T21:26:30.957Z,99.90
2022-08-24T21:28:58.938Z,99.90
2022-08-24T21:31:27.945Z,99.90
2022-08-24T21:34:19.927Z,99.90
2022-08-24T21:36:48.608Z,99.90
2022-08-24T21:39:15.840Z,99.90
2022-08-24T21:41:49.926Z,99.90
2022-08-24T21:44:17.158Z,99.90
2022-08-24T21:46:44.435Z,99.90
2022-08-24T21:49:18.148Z,99.90
2022-08-24T21:51:52.093Z,99.90
2022-08-24T21:54:32.976Z,99.90
2022-08-24T21:57:00.655Z,99.90
2022-08-24T21:59:27.845Z,99.90
2022-08-24T22:02:00.987Z,99.90
2022-08-24T22:04:28.195Z,99.90
2022-08-24T22:06:55.237Z,99.90
2022-08-24T22:09:28.934Z,99.90
2022-08-24T22:11:57.721Z,1.00
2022-08-24T22:14:25.717Z,99.90
